sensor_id;sensor_type;location;lat;lon;timestamp;P1;durP1;ratioP1;P2;durP2;ratioP2
64851;SDS011;56050;55.558;-4.644;2022-10-20T00:01:52;4.13;;;1.15;;
64851;SDS011;56050;55.558;-4.644;2022-10-20T00:04:18;6.30;;;0.98;;
64851;SDS011;56050;55.558;-4.644;2022-10-20T00:06:43;1.35;;;0.68;;
64851;SDS011;56050;55.558;-4.644;2022-10-20T00:09:10;4.75;;;0.60;;
64851;SDS011;56050;55.558;-4.644;2022-10-20T00:11:35;2.92;;;0.98;;
64851;SDS011;56050;55.558;-4.644;2022-10-20T00:14:01;2.53;;;1.02;;
64851;SDS011;56050;55.558;-4.644;2022-10-20T00:16:27;1.40;;;0.63;;
64851;SDS011;56050;55.558;-4.644;2022-10-20T00:18:55;3.63;;;0.85;;
64851;SDS011;56050;55.558;-4.644;2022-10-20T00:21:22;5.72;;;1.20;;
64851;SDS011;56050;55.558;-4.644;2022-10-20T00:23:48;1.92;;;0.88;;
64851;SDS011;56050;55.558;-4.644;2022-10-20T00:26:16;1.38;;;0.55;;
64851;SDS011;56050;55.558;-4.644;2022-10-20T00:28:46;5.20;;;1.27;;
64851;SDS011;56050;55.558;-4.644;2022-10-20T00:31:13;1.80;;;0.65;;
64851;SDS011;56050;55.558;-4.644;2022-10-20T00:33:39;2.17;;;0.65;;
64851;SDS011;56050;55.558;-4.644;2022-10-20T00:36:06;4.90;;;1.92;;
64851;SDS011;56050;55.558;-4.644;2022-10-20T00:38:33;3.67;;;1.20;;
64851;SDS011;56050;55.558;-4.644;2022-10-20T00:40:59;6.90;;;0.65;;
64851;SDS011;56050;55.558;-4.644;2022-10-20T00:46:22;3.00;;;1.27;;
64851;SDS011;56050;55.558;-4.644;2022-10-20T00:48:55;3.30;;;1.55;;
64851;SDS011;56050;55.558;-4.644;2022-10-20T00:51:24;2.53;;;0.68;;
64851;SDS011;56050;55.558;-4.644;2022-10-20T00:53:54;6.15;;;1.23;;
64851;SDS011;56050;55.558;-4.644;2022-10-20T00:56:26;3.22;;;0.88;;
64851;SDS011;56050;55.558;-4.644;2022-10-20T00:58:51;4.47;;;1.10;;
64851;SDS011;56050;55.558;-4.644;2022-10-20T01:01:18;3.85;;;0.85;;
64851;SDS011;56050;55.558;-4.644;2022-10-20T01:03:44;2.78;;;0.80;;
64851;SDS011;56050;55.558;-4.644;2022-10-20T01:06:13;3.05;;;0.73;;
64851;SDS011;56050;55.558;-4.644;2022-10-20T01:08:40;4.53;;;1.08;;
64851;SDS011;56050;55.558;-4.644;2022-10-20T01:11:25;2.05;;;0.68;;
64851;SDS011;56050;55.558;-4.644;2022-10-20T01:35:24;6.95;;;0.88;;
64851;SDS011;56050;55.558;-4.644;2022-10-20T01:40:31;4.13;;;1.30;;
64851;SDS011;56050;55.558;-4.644;2022-10-20T01:45:32;5.95;;;1.10;;
64851;SDS011;56050;55.558;-4.644;2022-10-20T01:48:01;3.03;;;1.35;;
64851;SDS011;56050;55.558;-4.644;2022-10-20T01:50:29;5.60;;;1.08;;
64851;SDS011;56050;55.558;-4.644;2022-10-20T01:52:56;7.07;;;0.98;;
64851;SDS011;56050;55.558;-4.644;2022-10-20T01:55:22;5.03;;;0.63;;
64851;SDS011;56050;55.558;-4.644;2022-10-20T02:00:15;7.30;;;0.83;;
64851;SDS011;56050;55.558;-4.644;2022-10-20T02:08:13;2.65;;;1.23;;
64851;SDS011;56050;55.558;-4.644;2022-10-20T02:10:45;4.15;;;1.02;;
64851;SDS011;56050;55.558;-4.644;2022-10-20T02:13:16;4.30;;;1.00;;
64851;SDS011;56050;55.558;-4.644;2022-10-20T02:15:45;4.40;;;1.13;;
64851;SDS011;56050;55.558;-4.644;2022-10-20T02:18:17;5.63;;;1.25;;
64851;SDS011;56050;55.558;-4.644;2022-10-20T02:20:48;3.00;;;0.93;;
64851;SDS011;56050;55.558;-4.644;2022-10-20T02:23:16;2.65;;;0.88;;
64851;SDS011;56050;55.558;-4.644;2022-10-20T02:25:42;2.97;;;0.75;;
64851;SDS011;56050;55.558;-4.644;2022-10-20T02:28:08;6.05;;;1.33;;
64851;SDS011;56050;55.558;-4.644;2022-10-20T02:30:36;2.60;;;1.17;;
64851;SDS011;56050;55.558;-4.644;2022-10-20T02:33:04;6.43;;;1.02;;
64851;SDS011;56050;55.558;-4.644;2022-10-20T02:35:31;4.22;;;1.95;;
64851;SDS011;56050;55.558;-4.644;2022-10-20T02:37:58;3.10;;;1.25;;
64851;SDS011;56050;55.558;-4.644;2022-10-20T02:40:23;5.55;;;1.30;;
64851;SDS011;56050;55.558;-4.644;2022-10-20T02:42:49;5.25;;;1.33;;
64851;SDS011;56050;55.558;-4.644;2022-10-20T02:45:15;6.43;;;0.93;;
64851;SDS011;56050;55.558;-4.644;2022-10-20T02:47:41;5.05;;;0.68;;
64851;SDS011;56050;55.558;-4.644;2022-10-20T02:50:06;8.15;;;1.40;;
64851;SDS011;56050;55.558;-4.644;2022-10-20T02:52:33;7.57;;;1.50;;
64851;SDS011;56050;55.558;-4.644;2022-10-20T02:54:59;5.75;;;1.52;;
64851;SDS011;56050;55.558;-4.644;2022-10-20T02:57:24;9.25;;;1.23;;
64851;SDS011;56050;55.558;-4.644;2022-10-20T02:59:50;7.25;;;0.43;;
64851;SDS011;56050;55.558;-4.644;2022-10-20T03:02:16;3.05;;;1.23;;
64851;SDS011;56050;55.558;-4.644;2022-10-20T03:04:42;9.30;;;1.20;;
64851;SDS011;56050;55.558;-4.644;2022-10-20T03:07:07;5.13;;;0.98;;
64851;SDS011;56050;55.558;-4.644;2022-10-20T03:09:32;9.52;;;1.15;;
64851;SDS011;56050;55.558;-4.644;2022-10-20T03:11:58;3.50;;;0.90;;
64851;SDS011;56050;55.558;-4.644;2022-10-20T03:14:23;5.15;;;1.05;;
64851;SDS011;56050;55.558;-4.644;2022-10-20T03:16:49;5.38;;;1.40;;
64851;SDS011;56050;55.558;-4.644;2022-10-20T03:19:14;3.60;;;1.38;;
64851;SDS011;56050;55.558;-4.644;2022-10-20T03:21:39;3.95;;;0.77;;
64851;SDS011;56050;55.558;-4.644;2022-10-20T03:24:05;3.60;;;1.67;;
64851;SDS011;56050;55.558;-4.644;2022-10-20T03:26:30;4.10;;;1.05;;
64851;SDS011;56050;55.558;-4.644;2022-10-20T03:28:56;4.20;;;0.68;;
64851;SDS011;56050;55.558;-4.644;2022-10-20T03:31:21;5.50;;;0.95;;
64851;SDS011;56050;55.558;-4.644;2022-10-20T03:33:47;8.60;;;1.45;;
64851;SDS011;56050;55.558;-4.644;2022-10-20T03:36:12;9.18;;;1.02;;
64851;SDS011;56050;55.558;-4.644;2022-10-20T03:38:39;7.57;;;0.77;;
64851;SDS011;56050;55.558;-4.644;2022-10-20T03:41:06;4.00;;;1.15;;
64851;SDS011;56050;55.558;-4.644;2022-10-20T03:43:31;5.47;;;0.80;;
64851;SDS011;56050;55.558;-4.644;2022-10-20T03:46:04;5.30;;;1.05;;
64851;SDS011;56050;55.558;-4.644;2022-10-20T03:48:31;5.05;;;1.23;;
64851;SDS011;56050;55.558;-4.644;2022-10-20T03:50:58;6.22;;;0.80;;
64851;SDS011;56050;55.558;-4.644;2022-10-20T03:53:24;4.25;;;0.90;;
64851;SDS011;56050;55.558;-4.644;2022-10-20T03:55:49;6.75;;;1.17;;
64851;SDS011;56050;55.558;-4.644;2022-10-20T03:58:15;8.90;;;1.35;;
64851;SDS011;56050;55.558;-4.644;2022-10-20T04:00:40;6.10;;;1.20;;
64851;SDS011;56050;55.558;-4.644;2022-10-20T04:03:06;7.25;;;0.75;;
64851;SDS011;56050;55.558;-4.644;2022-10-20T04:05:31;5.25;;;1.65;;
64851;SDS011;56050;55.558;-4.644;2022-10-20T04:07:57;4.65;;;1.33;;
64851;SDS011;56050;55.558;-4.644;2022-10-20T04:10:22;2.05;;;1.38;;
64851;SDS011;56050;55.558;-4.644;2022-10-20T04:12:47;6.45;;;1.05;;
64851;SDS011;56050;55.558;-4.644;2022-10-20T04:15:13;4.93;;;1.35;;
64851;SDS011;56050;55.558;-4.644;2022-10-20T04:17:39;7.63;;;0.75;;
64851;SDS011;56050;55.558;-4.644;2022-10-20T04:20:04;4.05;;;1.20;;
64851;SDS011;56050;55.558;-4.644;2022-10-20T04:22:31;9.02;;;1.38;;
64851;SDS011;56050;55.558;-4.644;2022-10-20T04:24:56;9.80;;;1.27;;
64851;SDS011;56050;55.558;-4.644;2022-10-20T04:27:22;3.58;;;0.95;;
64851;SDS011;56050;55.558;-4.644;2022-10-20T04:29:47;5.05;;;1.63;;
64851;SDS011;56050;55.558;-4.644;2022-10-20T04:32:13;4.20;;;1.65;;
64851;SDS011;56050;55.558;-4.644;2022-10-20T04:34:39;3.65;;;0.77;;
64851;SDS011;56050;55.558;-4.644;2022-10-20T04:37:04;3.63;;;0.90;;
64851;SDS011;56050;55.558;-4.644;2022-10-20T04:39:29;11.48;;;1.27;;
64851;SDS011;56050;55.558;-4.644;2022-10-20T04:41:55;7.97;;;1.25;;
64851;SDS011;56050;55.558;-4.644;2022-10-20T04:44:21;3.17;;;0.77;;
64851;SDS011;56050;55.558;-4.644;2022-10-20T04:46:46;3.83;;;0.55;;
64851;SDS011;56050;55.558;-4.644;2022-10-20T04:49:12;6.65;;;0.75;;
64851;SDS011;56050;55.558;-4.644;2022-10-20T04:51:37;7.93;;;2.03;;
64851;SDS011;56050;55.558;-4.644;2022-10-20T04:54:03;5.28;;;1.10;;
64851;SDS011;56050;55.558;-4.644;2022-10-20T04:56:28;6.80;;;1.15;;
64851;SDS011;56050;55.558;-4.644;2022-10-20T04:58:55;9.43;;;1.88;;
64851;SDS011;56050;55.558;-4.644;2022-10-20T05:01:22;6.90;;;1.15;;
64851;SDS011;56050;55.558;-4.644;2022-10-20T05:03:49;4.63;;;1.05;;
64851;SDS011;56050;55.558;-4.644;2022-10-20T05:06:22;3.50;;;0.70;;
64851;SDS011;56050;55.558;-4.644;2022-10-20T05:08:51;5.82;;;1.23;;
64851;SDS011;56050;55.558;-4.644;2022-10-20T05:11:18;7.85;;;1.58;;
64851;SDS011;56050;55.558;-4.644;2022-10-20T05:13:44;7.20;;;1.15;;
64851;SDS011;56050;55.558;-4.644;2022-10-20T05:16:10;2.72;;;1.35;;
64851;SDS011;56050;55.558;-4.644;2022-10-20T05:18:36;5.90;;;2.13;;
64851;SDS011;56050;55.558;-4.644;2022-10-20T05:21:09;3.92;;;0.88;;
64851;SDS011;56050;55.558;-4.644;2022-10-20T05:23:40;6.07;;;0.93;;
64851;SDS011;56050;55.558;-4.644;2022-10-20T05:26:07;3.08;;;0.93;;
64851;SDS011;56050;55.558;-4.644;2022-10-20T05:28:34;4.90;;;1.42;;
64851;SDS011;56050;55.558;-4.644;2022-10-20T05:31:00;8.52;;;1.27;;
64851;SDS011;56050;55.558;-4.644;2022-10-20T05:33:27;7.72;;;1.00;;
64851;SDS011;56050;55.558;-4.644;2022-10-20T05:35:52;4.97;;;1.45;;
64851;SDS011;56050;55.558;-4.644;2022-10-20T05:38:17;7.63;;;1.10;;
64851;SDS011;56050;55.558;-4.644;2022-10-20T05:40:43;2.08;;;1.13;;
64851;SDS011;56050;55.558;-4.644;2022-10-20T05:43:08;2.35;;;0.60;;
64851;SDS011;56050;55.558;-4.644;2022-10-20T05:45:34;4.40;;;0.85;;
64851;SDS011;56050;55.558;-4.644;2022-10-20T05:47:59;5.10;;;0.75;;
64851;SDS011;56050;55.558;-4.644;2022-10-20T05:50:24;7.60;;;0.98;;
64851;SDS011;56050;55.558;-4.644;2022-10-20T05:52:50;7.20;;;1.85;;
64851;SDS011;56050;55.558;-4.644;2022-10-20T05:55:15;4.65;;;0.77;;
64851;SDS011;56050;55.558;-4.644;2022-10-20T05:57:41;4.07;;;1.13;;
64851;SDS011;56050;55.558;-4.644;2022-10-20T06:00:06;4.35;;;1.20;;
64851;SDS011;56050;55.558;-4.644;2022-10-20T06:02:33;6.15;;;1.45;;
64851;SDS011;56050;55.558;-4.644;2022-10-20T06:04:58;5.93;;;1.60;;
64851;SDS011;56050;55.558;-4.644;2022-10-20T06:07:23;9.23;;;1.88;;
64851;SDS011;56050;55.558;-4.644;2022-10-20T06:09:49;5.55;;;1.58;;
64851;SDS011;56050;55.558;-4.644;2022-10-20T06:12:14;3.83;;;0.77;;
64851;SDS011;56050;55.558;-4.644;2022-10-20T06:14:40;2.65;;;1.05;;
64851;SDS011;56050;55.558;-4.644;2022-10-20T06:17:05;6.55;;;1.10;;
64851;SDS011;56050;55.558;-4.644;2022-10-20T06:19:31;4.55;;;0.90;;
64851;SDS011;56050;55.558;-4.644;2022-10-20T06:21:56;5.70;;;1.02;;
64851;SDS011;56050;55.558;-4.644;2022-10-20T06:24:22;5.78;;;1.27;;
64851;SDS011;56050;55.558;-4.644;2022-10-20T06:26:47;5.90;;;1.02;;
64851;SDS011;56050;55.558;-4.644;2022-10-20T06:29:14;5.25;;;0.82;;
64851;SDS011;56050;55.558;-4.644;2022-10-20T06:31:42;3.50;;;1.08;;
64851;SDS011;56050;55.558;-4.644;2022-10-20T06:34:12;4.00;;;0.75;;
64851;SDS011;56050;55.558;-4.644;2022-10-20T06:36:39;6.78;;;1.42;;
64851;SDS011;56050;55.558;-4.644;2022-10-20T06:39:06;4.95;;;0.98;;
64851;SDS011;56050;55.558;-4.644;2022-10-20T06:41:34;5.93;;;1.23;;
64851;SDS011;56050;55.558;-4.644;2022-10-20T06:44:00;3.80;;;1.08;;
64851;SDS011;56050;55.558;-4.644;2022-10-20T06:46:26;5.65;;;0.80;;
64851;SDS011;56050;55.558;-4.644;2022-10-20T06:48:58;3.85;;;1.23;;
64851;SDS011;56050;55.558;-4.644;2022-10-20T06:51:25;6.55;;;1.38;;
64851;SDS011;56050;55.558;-4.644;2022-10-20T06:53:50;2.58;;;0.88;;
64851;SDS011;56050;55.558;-4.644;2022-10-20T06:56:17;5.18;;;0.98;;
64851;SDS011;56050;55.558;-4.644;2022-10-20T06:58:45;2.67;;;0.95;;
64851;SDS011;56050;55.558;-4.644;2022-10-20T07:03:38;2.15;;;0.68;;
64851;SDS011;56050;55.558;-4.644;2022-10-20T07:06:05;7.95;;;1.42;;
64851;SDS011;56050;55.558;-4.644;2022-10-20T07:08:32;3.95;;;1.08;;
64851;SDS011;56050;55.558;-4.644;2022-10-20T07:11:00;6.85;;;1.30;;
64851;SDS011;56050;55.558;-4.644;2022-10-20T07:13:27;4.45;;;1.55;;
64851;SDS011;56050;55.558;-4.644;2022-10-20T07:15:54;3.45;;;1.42;;
64851;SDS011;56050;55.558;-4.644;2022-10-20T07:18:21;2.28;;;0.60;;
64851;SDS011;56050;55.558;-4.644;2022-10-20T07:20:46;5.13;;;0.98;;
64851;SDS011;56050;55.558;-4.644;2022-10-20T07:23:12;6.28;;;1.13;;
64851;SDS011;56050;55.558;-4.644;2022-10-20T07:25:37;4.18;;;1.00;;
64851;SDS011;56050;55.558;-4.644;2022-10-20T07:28:02;6.32;;;2.05;;
64851;SDS011;56050;55.558;-4.644;2022-10-20T07:30:28;3.08;;;0.85;;
64851;SDS011;56050;55.558;-4.644;2022-10-20T07:32:53;3.97;;;1.05;;
64851;SDS011;56050;55.558;-4.644;2022-10-20T07:35:19;4.50;;;1.08;;
64851;SDS011;56050;55.558;-4.644;2022-10-20T07:37:44;3.85;;;0.57;;
64851;SDS011;56050;55.558;-4.644;2022-10-20T07:40:10;4.97;;;1.48;;
64851;SDS011;56050;55.558;-4.644;2022-10-20T07:42:36;5.55;;;0.77;;
64851;SDS011;56050;55.558;-4.644;2022-10-20T07:45:01;3.72;;;1.10;;
64851;SDS011;56050;55.558;-4.644;2022-10-20T07:47:26;3.33;;;1.38;;
64851;SDS011;56050;55.558;-4.644;2022-10-20T07:49:52;3.85;;;1.52;;
64851;SDS011;56050;55.558;-4.644;2022-10-20T07:52:17;8.00;;;1.90;;
64851;SDS011;56050;55.558;-4.644;2022-10-20T07:54:43;5.82;;;1.52;;
64851;SDS011;56050;55.558;-4.644;2022-10-20T07:57:08;3.20;;;1.38;;
64851;SDS011;56050;55.558;-4.644;2022-10-20T07:59:34;6.60;;;1.02;;
64851;SDS011;56050;55.558;-4.644;2022-10-20T08:01:59;4.63;;;1.92;;
64851;SDS011;56050;55.558;-4.644;2022-10-20T08:04:25;9.27;;;1.52;;
64851;SDS011;56050;55.558;-4.644;2022-10-20T08:06:51;4.85;;;1.67;;
64851;SDS011;56050;55.558;-4.644;2022-10-20T08:09:16;4.18;;;1.40;;
64851;SDS011;56050;55.558;-4.644;2022-10-20T08:11:42;6.93;;;1.65;;
64851;SDS011;56050;55.558;-4.644;2022-10-20T08:14:07;4.53;;;1.20;;
64851;SDS011;56050;55.558;-4.644;2022-10-20T08:16:33;5.15;;;1.13;;
64851;SDS011;56050;55.558;-4.644;2022-10-20T08:18:58;7.50;;;1.42;;
64851;SDS011;56050;55.558;-4.644;2022-10-20T08:21:24;3.30;;;1.48;;
64851;SDS011;56050;55.558;-4.644;2022-10-20T08:23:50;5.00;;;1.50;;
64851;SDS011;56050;55.558;-4.644;2022-10-20T08:26:16;6.13;;;0.88;;
64851;SDS011;56050;55.558;-4.644;2022-10-20T08:28:47;7.22;;;1.70;;
64851;SDS011;56050;55.558;-4.644;2022-10-20T08:31:13;6.32;;;1.52;;
64851;SDS011;56050;55.558;-4.644;2022-10-20T08:33:39;3.50;;;1.05;;
64851;SDS011;56050;55.558;-4.644;2022-10-20T08:36:08;5.57;;;1.70;;
64851;SDS011;56050;55.558;-4.644;2022-10-20T08:38:36;4.20;;;1.55;;
64851;SDS011;56050;55.558;-4.644;2022-10-20T08:41:03;6.90;;;1.05;;
64851;SDS011;56050;55.558;-4.644;2022-10-20T08:43:31;7.25;;;1.73;;
64851;SDS011;56050;55.558;-4.644;2022-10-20T08:46:00;9.43;;;2.05;;
64851;SDS011;56050;55.558;-4.644;2022-10-20T08:48:27;4.88;;;1.70;;
64851;SDS011;56050;55.558;-4.644;2022-10-20T08:50:56;4.90;;;0.93;;
64851;SDS011;56050;55.558;-4.644;2022-10-20T08:53:22;4.43;;;1.50;;
64851;SDS011;56050;55.558;-4.644;2022-10-20T08:55:50;4.85;;;1.38;;
64851;SDS011;56050;55.558;-4.644;2022-10-20T08:58:18;5.20;;;1.52;;
64851;SDS011;56050;55.558;-4.644;2022-10-20T09:00:47;4.60;;;1.73;;
64851;SDS011;56050;55.558;-4.644;2022-10-20T09:03:20;6.13;;;1.35;;
64851;SDS011;56050;55.558;-4.644;2022-10-20T09:08:40;5.28;;;1.88;;
64851;SDS011;56050;55.558;-4.644;2022-10-20T09:11:07;9.30;;;2.03;;
64851;SDS011;56050;55.558;-4.644;2022-10-20T09:13:39;6.47;;;2.00;;
64851;SDS011;56050;55.558;-4.644;2022-10-20T09:18:36;8.15;;;1.88;;
64851;SDS011;56050;55.558;-4.644;2022-10-20T09:21:03;6.68;;;2.00;;
64851;SDS011;56050;55.558;-4.644;2022-10-20T09:23:38;7.93;;;1.27;;
64851;SDS011;56050;55.558;-4.644;2022-10-20T09:26:16;4.95;;;1.00;;
64851;SDS011;56050;55.558;-4.644;2022-10-20T09:28:42;8.27;;;1.77;;
64851;SDS011;56050;55.558;-4.644;2022-10-20T09:31:23;5.82;;;2.00;;
64851;SDS011;56050;55.558;-4.644;2022-10-20T09:33:59;5.15;;;1.60;;
64851;SDS011;56050;55.558;-4.644;2022-10-20T09:36:27;4.90;;;1.55;;
64851;SDS011;56050;55.558;-4.644;2022-10-20T09:38:55;6.88;;;1.73;;
64851;SDS011;56050;55.558;-4.644;2022-10-20T09:41:24;7.25;;;1.83;;
64851;SDS011;56050;55.558;-4.644;2022-10-20T09:44:13;8.48;;;2.03;;
64851;SDS011;56050;55.558;-4.644;2022-10-20T09:46:48;7.78;;;1.58;;
64851;SDS011;56050;55.558;-4.644;2022-10-20T09:49:29;7.93;;;2.33;;
64851;SDS011;56050;55.558;-4.644;2022-10-20T09:51:58;8.18;;;1.58;;
64851;SDS011;56050;55.558;-4.644;2022-10-20T09:54:25;9.20;;;2.00;;
64851;SDS011;56050;55.558;-4.644;2022-10-20T09:56:52;7.38;;;2.15;;
64851;SDS011;56050;55.558;-4.644;2022-10-20T10:01:58;9.98;;;2.13;;
64851;SDS011;56050;55.558;-4.644;2022-10-20T10:09:56;8.73;;;1.65;;
64851;SDS011;56050;55.558;-4.644;2022-10-20T10:12:27;5.80;;;2.45;;
64851;SDS011;56050;55.558;-4.644;2022-10-20T10:15:02;10.82;;;3.35;;
64851;SDS011;56050;55.558;-4.644;2022-10-20T10:17:30;11.52;;;2.55;;
64851;SDS011;56050;55.558;-4.644;2022-10-20T10:19:58;12.13;;;1.98;;
64851;SDS011;56050;55.558;-4.644;2022-10-20T10:22:24;11.95;;;2.90;;
64851;SDS011;56050;55.558;-4.644;2022-10-20T10:24:50;9.63;;;2.70;;
64851;SDS011;56050;55.558;-4.644;2022-10-20T10:27:23;9.70;;;2.50;;
64851;SDS011;56050;55.558;-4.644;2022-10-20T10:29:49;8.13;;;2.83;;
64851;SDS011;56050;55.558;-4.644;2022-10-20T10:32:16;18.10;;;3.08;;
64851;SDS011;56050;55.558;-4.644;2022-10-20T10:37:13;11.93;;;3.10;;
64851;SDS011;56050;55.558;-4.644;2022-10-20T10:39:40;9.98;;;2.95;;
64851;SDS011;56050;55.558;-4.644;2022-10-20T10:42:09;13.93;;;2.92;;
64851;SDS011;56050;55.558;-4.644;2022-10-20T10:50:57;9.75;;;2.90;;
64851;SDS011;56050;55.558;-4.644;2022-10-20T10:59:11;13.52;;;2.85;;
64851;SDS011;56050;55.558;-4.644;2022-10-20T11:10:08;8.85;;;2.10;;
64851;SDS011;56050;55.558;-4.644;2022-10-20T11:15:34;8.05;;;2.58;;
64851;SDS011;56050;55.558;-4.644;2022-10-20T11:26:43;7.88;;;3.10;;
64851;SDS011;56050;55.558;-4.644;2022-10-20T11:37:31;7.18;;;2.45;;
64851;SDS011;56050;55.558;-4.644;2022-10-20T11:42:40;8.45;;;2.10;;
64851;SDS011;56050;55.558;-4.644;2022-10-20T11:47:48;6.32;;;1.73;;
64851;SDS011;56050;55.558;-4.644;2022-10-20T11:50:22;6.28;;;2.08;;
64851;SDS011;56050;55.558;-4.644;2022-10-20T11:52:57;7.28;;;1.98;;
64851;SDS011;56050;55.558;-4.644;2022-10-20T11:55:34;6.65;;;2.83;;
64851;SDS011;56050;55.558;-4.644;2022-10-20T11:58:18;5.53;;;1.70;;
64851;SDS011;56050;55.558;-4.644;2022-10-20T12:12:13;4.68;;;1.95;;
64851;SDS011;56050;55.558;-4.644;2022-10-20T12:15:00;5.22;;;1.35;;
64851;SDS011;56050;55.558;-4.644;2022-10-20T12:17:45;4.93;;;1.73;;
64851;SDS011;56050;55.558;-4.644;2022-10-20T12:22:48;4.68;;;1.58;;
64851;SDS011;56050;55.558;-4.644;2022-10-20T12:30:55;7.50;;;1.83;;
64851;SDS011;56050;55.558;-4.644;2022-10-20T12:33:38;6.15;;;1.90;;
64851;SDS011;56050;55.558;-4.644;2022-10-20T12:38:41;6.22;;;2.05;;
64851;SDS011;56050;55.558;-4.644;2022-10-20T12:41:31;4.13;;;1.63;;
64851;SDS011;56050;55.558;-4.644;2022-10-20T12:44:00;4.18;;;1.98;;
64851;SDS011;56050;55.558;-4.644;2022-10-20T12:46:29;5.15;;;3.50;;
64851;SDS011;56050;55.558;-4.644;2022-10-20T12:49:00;8.23;;;2.17;;
64851;SDS011;56050;55.558;-4.644;2022-10-20T12:51:31;7.30;;;2.28;;
64851;SDS011;56050;55.558;-4.644;2022-10-20T12:54:04;7.18;;;2.42;;
64851;SDS011;56050;55.558;-4.644;2022-10-20T12:56:40;8.68;;;2.10;;
64851;SDS011;56050;55.558;-4.644;2022-10-20T12:59:51;7.43;;;1.80;;
64851;SDS011;56050;55.558;-4.644;2022-10-20T13:12:50;9.60;;;2.25;;
64851;SDS011;56050;55.558;-4.644;2022-10-20T13:15:17;8.40;;;3.03;;
64851;SDS011;56050;55.558;-4.644;2022-10-20T13:17:52;6.47;;;2.03;;
64851;SDS011;56050;55.558;-4.644;2022-10-20T13:20:23;9.02;;;2.88;;
64851;SDS011;56050;55.558;-4.644;2022-10-20T13:22:53;6.55;;;2.00;;
64851;SDS011;56050;55.558;-4.644;2022-10-20T13:28:02;5.80;;;2.60;;
64851;SDS011;56050;55.558;-4.644;2022-10-20T13:44:29;7.78;;;2.45;;
64851;SDS011;56050;55.558;-4.644;2022-10-20T13:47:17;9.00;;;1.70;;
64851;SDS011;56050;55.558;-4.644;2022-10-20T13:50:06;9.23;;;2.67;;
64851;SDS011;56050;55.558;-4.644;2022-10-20T13:52:33;10.02;;;3.47;;
64851;SDS011;56050;55.558;-4.644;2022-10-20T13:55:05;7.30;;;3.15;;
64851;SDS011;56050;55.558;-4.644;2022-10-20T13:57:33;9.82;;;3.15;;
64851;SDS011;56050;55.558;-4.644;2022-10-20T14:00:22;7.95;;;2.70;;
64851;SDS011;56050;55.558;-4.644;2022-10-20T14:02:52;10.00;;;2.88;;
64851;SDS011;56050;55.558;-4.644;2022-10-20T14:05:21;9.25;;;2.47;;
64851;SDS011;56050;55.558;-4.644;2022-10-20T14:07:47;9.75;;;3.08;;
64851;SDS011;56050;55.558;-4.644;2022-10-20T14:10:28;7.90;;;3.10;;
64851;SDS011;56050;55.558;-4.644;2022-10-20T14:13:16;8.27;;;2.50;;
64851;SDS011;56050;55.558;-4.644;2022-10-20T14:15:46;8.98;;;2.83;;
64851;SDS011;56050;55.558;-4.644;2022-10-20T14:18:20;7.90;;;2.75;;
64851;SDS011;56050;55.558;-4.644;2022-10-20T14:20:52;9.73;;;3.17;;
64851;SDS011;56050;55.558;-4.644;2022-10-20T14:23:27;7.00;;;2.08;;
64851;SDS011;56050;55.558;-4.644;2022-10-20T14:26:06;7.07;;;2.10;;
64851;SDS011;56050;55.558;-4.644;2022-10-20T14:28:36;6.18;;;2.85;;
64851;SDS011;56050;55.558;-4.644;2022-10-20T14:31:05;7.80;;;2.58;;
64851;SDS011;56050;55.558;-4.644;2022-10-20T14:33:35;6.03;;;2.03;;
64851;SDS011;56050;55.558;-4.644;2022-10-20T14:38:44;6.13;;;1.98;;
64851;SDS011;56050;55.558;-4.644;2022-10-20T14:41:11;8.13;;;1.98;;
64851;SDS011;56050;55.558;-4.644;2022-10-20T14:44:00;6.05;;;2.20;;
64851;SDS011;56050;55.558;-4.644;2022-10-20T14:46:29;5.40;;;2.22;;
64851;SDS011;56050;55.558;-4.644;2022-10-20T14:48:57;7.55;;;2.70;;
64851;SDS011;56050;55.558;-4.644;2022-10-20T14:51:53;4.57;;;1.83;;
64851;SDS011;56050;55.558;-4.644;2022-10-20T14:57:00;8.75;;;2.17;;
64851;SDS011;56050;55.558;-4.644;2022-10-20T14:59:50;6.50;;;1.63;;
64851;SDS011;56050;55.558;-4.644;2022-10-20T15:02:28;4.57;;;1.52;;
64851;SDS011;56050;55.558;-4.644;2022-10-20T15:07:47;5.82;;;1.83;;
64851;SDS011;56050;55.558;-4.644;2022-10-20T15:10:14;4.55;;;1.85;;
64851;SDS011;56050;55.558;-4.644;2022-10-20T15:12:42;4.40;;;1.35;;
64851;SDS011;56050;55.558;-4.644;2022-10-20T15:17:48;3.90;;;1.53;;
64851;SDS011;56050;55.558;-4.644;2022-10-20T15:20:37;4.07;;;1.45;;
64851;SDS011;56050;55.558;-4.644;2022-10-20T15:28:47;7.05;;;1.98;;
64851;SDS011;56050;55.558;-4.644;2022-10-20T15:31:24;7.53;;;1.70;;
64851;SDS011;56050;55.558;-4.644;2022-10-20T15:33:53;11.30;;;2.00;;
64851;SDS011;56050;55.558;-4.644;2022-10-20T15:36:22;12.95;;;2.65;;
64851;SDS011;56050;55.558;-4.644;2022-10-20T15:38:58;13.75;;;2.38;;
64851;SDS011;56050;55.558;-4.644;2022-10-20T15:41:27;11.60;;;2.42;;
64851;SDS011;56050;55.558;-4.644;2022-10-20T15:43:55;9.20;;;2.58;;
64851;SDS011;56050;55.558;-4.644;2022-10-20T15:46:21;13.75;;;2.65;;
64851;SDS011;56050;55.558;-4.644;2022-10-20T15:48:47;12.63;;;2.40;;
64851;SDS011;56050;55.558;-4.644;2022-10-20T15:53:46;8.27;;;2.75;;
64851;SDS011;56050;55.558;-4.644;2022-10-20T15:56:13;9.60;;;2.95;;
64851;SDS011;56050;55.558;-4.644;2022-10-20T15:58:39;8.85;;;3.00;;
64851;SDS011;56050;55.558;-4.644;2022-10-20T16:01:04;14.75;;;2.97;;
64851;SDS011;56050;55.558;-4.644;2022-10-20T16:03:30;11.50;;;2.35;;
64851;SDS011;56050;55.558;-4.644;2022-10-20T16:05:55;12.95;;;3.55;;
64851;SDS011;56050;55.558;-4.644;2022-10-20T16:08:21;11.23;;;3.30;;
64851;SDS011;56050;55.558;-4.644;2022-10-20T16:10:46;6.57;;;2.63;;
64851;SDS011;56050;55.558;-4.644;2022-10-20T16:13:12;12.10;;;3.08;;
64851;SDS011;56050;55.558;-4.644;2022-10-20T16:15:39;8.48;;;2.60;;
64851;SDS011;56050;55.558;-4.644;2022-10-20T16:18:05;13.43;;;3.22;;
64851;SDS011;56050;55.558;-4.644;2022-10-20T16:20:30;7.30;;;2.75;;
64851;SDS011;56050;55.558;-4.644;2022-10-20T16:22:56;6.65;;;3.30;;
64851;SDS011;56050;55.558;-4.644;2022-10-20T16:25:21;8.18;;;3.10;;
64851;SDS011;56050;55.558;-4.644;2022-10-20T16:27:47;7.65;;;3.08;;
64851;SDS011;56050;55.558;-4.644;2022-10-20T16:30:12;8.00;;;2.42;;
64851;SDS011;56050;55.558;-4.644;2022-10-20T16:32:38;8.70;;;2.50;;
64851;SDS011;56050;55.558;-4.644;2022-10-20T16:35:03;8.55;;;2.95;;
64851;SDS011;56050;55.558;-4.644;2022-10-20T16:37:30;7.78;;;2.33;;
64851;SDS011;56050;55.558;-4.644;2022-10-20T16:39:57;6.38;;;2.38;;
64851;SDS011;56050;55.558;-4.644;2022-10-20T16:42:22;6.05;;;2.00;;
64851;SDS011;56050;55.558;-4.644;2022-10-20T16:44:48;6.43;;;2.92;;
64851;SDS011;56050;55.558;-4.644;2022-10-20T16:47:14;9.77;;;2.13;;
64851;SDS011;56050;55.558;-4.644;2022-10-20T16:49:39;8.52;;;2.28;;
64851;SDS011;56050;55.558;-4.644;2022-10-20T16:52:05;5.95;;;2.17;;
64851;SDS011;56050;55.558;-4.644;2022-10-20T16:54:30;6.68;;;2.58;;
64851;SDS011;56050;55.558;-4.644;2022-10-20T16:56:56;6.60;;;2.15;;
64851;SDS011;56050;55.558;-4.644;2022-10-20T16:59:21;5.97;;;2.25;;
64851;SDS011;56050;55.558;-4.644;2022-10-20T17:01:47;4.80;;;2.08;;
64851;SDS011;56050;55.558;-4.644;2022-10-20T17:04:12;5.35;;;2.08;;
64851;SDS011;56050;55.558;-4.644;2022-10-20T17:06:38;4.22;;;1.52;;
64851;SDS011;56050;55.558;-4.644;2022-10-20T17:09:03;4.20;;;1.83;;
64851;SDS011;56050;55.558;-4.644;2022-10-20T17:11:30;7.63;;;2.72;;
64851;SDS011;56050;55.558;-4.644;2022-10-20T17:13:57;5.10;;;2.88;;
64851;SDS011;56050;55.558;-4.644;2022-10-20T17:16:24;4.47;;;2.13;;
64851;SDS011;56050;55.558;-4.644;2022-10-20T17:18:53;5.20;;;1.98;;
64851;SDS011;56050;55.558;-4.644;2022-10-20T17:21:19;3.78;;;1.65;;
64851;SDS011;56050;55.558;-4.644;2022-10-20T17:23:45;5.07;;;3.10;;
64851;SDS011;56050;55.558;-4.644;2022-10-20T17:26:12;4.28;;;1.23;;
64851;SDS011;56050;55.558;-4.644;2022-10-20T17:28:42;3.78;;;1.17;;
64851;SDS011;56050;55.558;-4.644;2022-10-20T17:31:09;3.53;;;1.58;;